createdAt,value
2019-05-13T00:01:37.868Z,14.37
2019-05-13T00:04:09.465Z,14.35
2019-05-13T00:06:53.245Z,14.39
2019-05-13T00:09:14.278Z,14.36
2019-05-13T00:11:45.723Z,14.45
2019-05-13T00:14:17.196Z,14.49
2019-05-13T00:16:48.564Z,14.41
2019-05-13T00:19:23.205Z,14.39
2019-05-13T00:21:54.591Z,14.57
2019-05-13T00:24:26.218Z,14.52
2019-05-13T00:26:57.588Z,14.55
2019-05-13T00:29:29.011Z,14.80
2019-05-13T00:32:00.456Z,14.79
2019-05-13T00:34:33.861Z,14.70
2019-05-13T00:37:10.766Z,14.70
2019-05-13T00:39:38.075Z,14.78
2019-05-13T00:42:09.437Z,14.84
2019-05-13T00:44:40.910Z,14.92
2019-05-13T00:47:13.231Z,14.88
2019-05-13T00:49:44.810Z,14.76
2019-05-13T00:52:16.188Z,14.76
2019-05-13T00:54:47.629Z,14.84
2019-05-13T00:57:18.985Z,14.87
2019-05-13T00:59:50.413Z,15.12
2019-05-13T01:02:24.195Z,15.18
2019-05-13T01:04:55.093Z,15.15
2019-05-13T01:07:28.974Z,15.15
2019-05-13T01:09:59.545Z,15.15
2019-05-13T01:12:34.469Z,15.20
2019-05-13T01:15:06.116Z,15.09
2019-05-13T01:17:37.322Z,15.10
2019-05-13T01:20:09.062Z,15.14
2019-05-13T01:22:40.455Z,15.22
2019-05-13T01:25:14.348Z,15.20
2019-05-13T01:27:45.240Z,15.19
2019-05-13T01:30:17.239Z,15.28
2019-05-13T01:32:50.466Z,15.26
2019-05-13T01:35:23.582Z,15.26
2019-05-13T01:37:55.408Z,15.30
2019-05-13T01:40:26.893Z,15.22
2019-05-13T01:42:58.430Z,15.27
2019-05-13T01:45:33.689Z,15.22
2019-05-13T01:48:07.503Z,15.25
2019-05-13T01:50:37.914Z,15.16
2019-05-13T01:53:10.269Z,15.18
2019-05-13T01:55:44.075Z,15.23
2019-05-13T01:58:15.087Z,15.16
2019-05-13T02:00:46.498Z,15.19
2019-05-13T02:03:18.008Z,15.18
2019-05-13T02:05:49.478Z,15.21
2019-05-13T02:08:20.942Z,15.13
2019-05-13T02:10:54.756Z,15.16
2019-05-13T02:13:27.576Z,15.15
2019-05-13T02:15:59.026Z,15.18
2019-05-13T02:18:30.378Z,15.20
2019-05-13T02:21:05.310Z,15.20
2019-05-13T02:23:34.877Z,15.18
2019-05-13T02:26:06.321Z,15.22
2019-05-13T02:28:37.698Z,15.19
2019-05-13T02:31:12.474Z,15.19
2019-05-13T02:33:42.600Z,15.16
2019-05-13T02:36:14.192Z,15.10
2019-05-13T02:38:45.569Z,15.15
2019-05-13T02:41:17.013Z,15.03
2019-05-13T02:43:48.522Z,15.10
2019-05-13T02:46:22.559Z,15.18
2019-05-13T02:48:53.048Z,15.18
2019-05-13T02:51:25.913Z,15.20
2019-05-13T02:53:57.373Z,15.25
2019-05-13T02:56:28.791Z,15.28
2019-05-13T02:59:03.449Z,15.26
2019-05-13T03:01:33.531Z,15.27
2019-05-13T03:04:04.952Z,15.30
2019-05-13T03:06:36.358Z,15.39
2019-05-13T03:09:08.129Z,15.45
2019-05-13T03:11:42.297Z,15.52
2019-05-13T03:14:13.079Z,15.52
2019-05-13T03:16:55.342Z,15.54
2019-05-13T03:19:32.920Z,15.51
2019-05-13T03:22:03.463Z,15.50
2019-05-13T03:24:35.077Z,15.49
2019-05-13T03:27:06.505Z,15.56
2019-05-13T03:29:37.935Z,15.50
2019-05-13T03:32:15.414Z,15.39
2019-05-13T03:34:45.362Z,15.43
2019-05-13T03:37:16.612Z,15.49
2019-05-13T03:39:52.213Z,15.40
2019-05-13T03:42:25.574Z,15.49
2019-05-13T03:44:58.387Z,15.51
2019-05-13T03:47:32.857Z,15.31
2019-05-13T03:50:04.067Z,15.42
2019-05-13T03:52:35.559Z,15.43
2019-05-13T03:55:08.606Z,15.40
2019-05-13T03:57:42.603Z,15.63
2019-05-13T04:00:13.901Z,15.65
2019-05-13T04:02:45.377Z,15.75
2019-05-13T04:05:16.853Z,15.71
2019-05-13T04:07:52.037Z,15.55
2019-05-13T04:10:23.241Z,15.77
2019-05-13T04:12:55.030Z,16.12
2019-05-13T04:15:26.695Z,16.30
2019-05-13T04:17:58.526Z,16.14
2019-05-13T04:20:33.002Z,16.25
2019-05-13T04:23:03.350Z,16.49
2019-05-13T04:25:39.400Z,16.56
2019-05-13T04:28:08.290Z,16.71
2019-05-13T04:30:43.342Z,16.95
2019-05-13T04:33:13.921Z,16.88
2019-05-13T04:35:45.882Z,17.25
2019-05-13T04:38:17.326Z,17.31
2019-05-13T04:40:48.850Z,17.78
2019-05-13T04:43:23.616Z,17.96
2019-05-13T04:45:53.868Z,18.91
2019-05-13T04:48:25.614Z,19.12
2019-05-13T04:50:57.074Z,19.44
2019-05-13T04:53:28.574Z,19.34
2019-05-13T04:56:03.152Z,19.24
2019-05-13T04:58:33.357Z,19.90
2019-05-13T05:01:32.562Z,20.50
2019-05-13T05:04:30.514Z,20.75
2019-05-13T05:07:22.008Z,19.96
2019-05-13T05:10:18.937Z,19.82
2019-05-13T05:12:52.113Z,19.73
2019-05-13T05:16:02.895Z,20.23
2019-05-13T05:18:43.783Z,20.20
2019-05-13T05:21:26.996Z,19.65
2019-05-13T05:24:11.400Z,19.39
2019-05-13T05:27:21.245Z,19.07
2019-05-13T05:30:12.847Z,18.78
2019-05-13T05:33:22.433Z,18.44
2019-05-13T05:36:14.567Z,18.54
2019-05-13T05:39:12.182Z,18.24
2019-05-13T05:41:45.568Z,18.41
2019-05-13T05:44:17.803Z,18.46
2019-05-13T05:46:51.525Z,18.68
2019-05-13T05:49:25.649Z,18.57
2019-05-13T05:52:01.670Z,18.92
2019-05-13T05:54:36.031Z,18.69
2019-05-13T05:57:11.847Z,18.68
2019-05-13T05:59:42.602Z,18.25
2019-05-13T06:02:14.875Z,18.51
2019-05-13T06:04:47.557Z,18.68
2019-05-13T06:07:21.906Z,19.25
2019-05-13T06:09:53.329Z,19.55
2019-05-13T06:12:24.920Z,19.81
2019-05-13T06:14:56.557Z,19.75
2019-05-13T06:17:28.053Z,19.69
2019-05-13T06:20:03.263Z,19.81
2019-05-13T06:22:34.812Z,19.80
2019-05-13T06:25:07.345Z,20.53
2019-05-13T06:27:42.090Z,21.36
2019-05-13T06:30:13.165Z,22.19
2019-05-13T06:32:44.892Z,22.90
2019-05-13T06:35:17.385Z,23.27
2019-05-13T06:37:48.827Z,24.20
2019-05-13T06:40:22.011Z,24.54
2019-05-13T06:42:53.404Z,24.98
2019-05-13T06:45:24.933Z,26.13
2019-05-13T06:47:56.403Z,26.83
2019-05-13T06:50:28.418Z,25.97
2019-05-13T06:53:02.130Z,24.62
2019-05-13T06:55:34.664Z,23.16
2019-05-13T06:58:06.149Z,22.50
2019-05-13T07:00:37.638Z,21.83
2019-05-13T07:03:09.225Z,21.40
2019-05-13T07:05:42.313Z,21.81
2019-05-13T07:08:14.019Z,21.83
2019-05-13T07:10:45.570Z,21.62
2019-05-13T07:13:17.218Z,21.53
2019-05-13T07:15:48.907Z,21.67
2019-05-13T07:18:21.883Z,21.45
2019-05-13T07:20:53.615Z,21.89
2019-05-13T07:23:25.097Z,21.70
2019-05-13T07:26:01.535Z,21.59
2019-05-13T07:28:32.649Z,21.28
2019-05-13T07:31:04.205Z,21.14
2019-05-13T07:33:35.683Z,21.23
2019-05-13T07:36:07.188Z,21.21
2019-05-13T07:38:38.652Z,21.38
2019-05-13T07:41:11.976Z,20.90
2019-05-13T07:43:43.753Z,20.64
2019-05-13T07:46:15.279Z,20.78
2019-05-13T07:48:46.785Z,20.66
2019-05-13T07:51:18.374Z,20.65
2019-05-13T07:53:51.805Z,20.56
2019-05-13T07:56:23.041Z,20.50
2019-05-13T07:58:54.550Z,20.59
2019-05-13T08:01:26.179Z,20.73
2019-05-13T08:03:57.568Z,20.84
2019-05-13T08:06:29.072Z,20.79
2019-05-13T08:09:01.703Z,21.00
2019-05-13T08:11:36.792Z,20.97
2019-05-13T08:14:07.463Z,20.84
2019-05-13T08:16:38.991Z,20.83
2019-05-13T08:19:12.334Z,21.01
2019-05-13T08:21:43.898Z,20.92
2019-05-13T08:24:15.267Z,21.03
2019-05-13T08:26:49.932Z,21.14
2019-05-13T08:29:21.626Z,21.21
2019-05-13T08:31:53.047Z,21.11
2019-05-13T08:34:24.410Z,21.12
2019-05-13T08:36:55.807Z,21.00
2019-05-13T08:39:33.318Z,21.04
2019-05-13T08:42:12.868Z,21.12
2019-05-13T08:44:33.516Z,21.33
2019-05-13T08:47:04.963Z,21.48
2019-05-13T08:49:36.229Z,21.62
2019-05-13T08:52:07.522Z,21.59
2019-05-13T08:54:38.916Z,21.57
2019-05-13T08:57:12.117Z,21.84
2019-05-13T08:59:43.512Z,21.74
2019-05-13T09:02:15.034Z,21.55
2019-05-13T09:04:46.425Z,21.86
2019-05-13T09:07:21.045Z,21.79
2019-05-13T09:09:51.355Z,21.63
2019-05-13T09:12:32.187Z,21.80
2019-05-13T09:14:56.408Z,21.81
2019-05-13T09:17:27.796Z,21.72
2019-05-13T09:19:59.154Z,21.59
2019-05-13T09:22:31.859Z,21.80
2019-05-13T09:25:04.401Z,21.62
2019-05-13T09:27:35.880Z,21.70
2019-05-13T09:30:07.733Z,21.71
2019-05-13T09:32:39.207Z,21.82
2019-05-13T09:35:12.014Z,21.94
2019-05-13T09:37:43.762Z,21.83
2019-05-13T09:40:15.237Z,21.71
2019-05-13T09:42:51.082Z,21.75
2019-05-13T09:45:21.598Z,21.88
2019-05-13T09:47:53.192Z,22.00
2019-05-13T09:50:29.264Z,21.88
2019-05-13T09:52:57.767Z,21.92
2019-05-13T09:55:30.265Z,21.90
2019-05-13T09:58:02.592Z,22.02
2019-05-13T10:00:34.065Z,22.00
2019-05-13T10:03:05.485Z,21.94
2019-05-13T10:05:36.937Z,22.04
2019-05-13T10:08:08.414Z,21.91
2019-05-13T10:10:42.324Z,22.18
2019-05-13T10:13:15.704Z,22.33
2019-05-13T10:15:48.886Z,22.39
2019-05-13T10:18:22.219Z,22.31
2019-05-13T10:21:01.284Z,22.42
2019-05-13T10:23:33.637Z,22.35
2019-05-13T10:26:12.461Z,22.41
2019-05-13T10:28:42.949Z,22.52
2019-05-13T10:31:14.516Z,22.55
2019-05-13T10:33:45.972Z,22.46
2019-05-13T10:36:17.420Z,22.09
2019-05-13T10:38:48.972Z,22.28
2019-05-13T10:41:22.217Z,22.46
2019-05-13T10:43:53.821Z,22.60
2019-05-13T10:46:25.276Z,22.50
2019-05-13T10:48:56.766Z,22.53
2019-05-13T10:51:32.491Z,22.68
2019-05-13T10:54:03.311Z,22.49
2019-05-13T10:56:34.615Z,22.86
2019-05-13T10:59:06.066Z,22.85
2019-05-13T11:01:37.518Z,22.97
2019-05-13T11:04:13.316Z,22.77
2019-05-13T11:06:42.422Z,22.71
2019-05-13T11:09:14.143Z,22.56
2019-05-13T11:11:45.602Z,22.17
2019-05-13T11:14:17.106Z,22.10
2019-05-13T11:16:48.535Z,22.08
2019-05-13T11:19:22.598Z,22.05
2019-05-13T11:21:53.237Z,22.14
2019-05-13T11:24:24.815Z,22.07
2019-05-13T11:26:56.286Z,21.73
2019-05-13T11:29:27.805Z,21.70
2019-05-13T11:32:02.012Z,21.81
2019-05-13T11:34:33.021Z,21.69
2019-05-13T11:37:04.642Z,21.84
2019-05-13T11:39:37.246Z,21.91
2019-05-13T11:42:08.799Z,22.25
2019-05-13T11:44:42.883Z,22.55
2019-05-13T11:47:13.343Z,22.76
2019-05-13T11:49:46.478Z,22.69
2019-05-13T11:52:17.823Z,22.87
2019-05-13T11:54:55.537Z,22.90
2019-05-13T11:57:27.004Z,23.09
2019-05-13T11:59:58.531Z,22.95
2019-05-13T12:06:02.826Z,21.13
2019-05-13T12:08:34.586Z,20.68
2019-05-13T12:11:07.184Z,20.58
2019-05-13T12:13:38.979Z,20.63
2019-05-13T12:16:12.853Z,20.72
2019-05-13T12:18:44.607Z,20.85
2019-05-13T12:21:16.087Z,21.02
2019-05-13T12:23:47.547Z,21.19
2019-05-13T12:26:19.082Z,21.23
2019-05-13T12:28:53.662Z,21.37
2019-05-13T12:31:23.681Z,21.48
2019-05-13T12:33:55.350Z,21.62
2019-05-13T12:36:27.109Z,21.71
2019-05-13T12:38:58.559Z,21.84
2019-05-13T12:41:33.038Z,21.97
2019-05-13T12:44:03.507Z,22.06
2019-05-13T12:46:35.056Z,22.05
2019-05-13T12:49:06.429Z,21.85
2019-05-13T12:51:38.367Z,21.10
2019-05-13T12:54:12.571Z,20.85
2019-05-13T12:56:42.878Z,20.55
2019-05-13T12:59:14.242Z,20.25
2019-05-13T13:01:45.656Z,20.27
2019-05-13T13:04:16.957Z,20.23
2019-05-13T13:06:48.473Z,20.24
2019-05-13T13:09:25.047Z,20.23
2019-05-13T13:12:00.305Z,20.22
2019-05-13T13:14:38.571Z,20.23
2019-05-13T13:17:05.220Z,20.20
2019-05-13T13:19:36.726Z,20.27
2019-05-13T13:22:08.378Z,20.20
2019-05-13T13:24:50.482Z,20.18
2019-05-13T13:27:20.876Z,20.21
2019-05-13T13:29:46.200Z,20.25
2019-05-13T13:32:17.670Z,20.23
2019-05-13T13:34:53.551Z,20.15
2019-05-13T13:37:22.734Z,20.07
2019-05-13T13:39:55.452Z,20.09
2019-05-13T13:42:26.985Z,20.08
2019-05-13T13:44:58.506Z,20.12
2019-05-13T13:47:33.198Z,20.13
2019-05-13T13:50:03.172Z,20.20
2019-05-13T13:52:34.739Z,20.25
2019-05-13T13:55:08.961Z,20.29
2019-05-13T13:57:43.676Z,20.26
2019-05-13T14:00:29.266Z,20.26
2019-05-13T14:02:47.405Z,20.20
2019-05-13T14:05:18.839Z,20.20
2019-05-13T14:07:52.192Z,20.20
2019-05-13T14:10:23.583Z,20.18
2019-05-13T14:12:55.161Z,20.13
2019-05-13T14:15:26.628Z,20.14
2019-05-13T14:17:58.342Z,20.17
2019-05-13T14:20:32.575Z,20.23
2019-05-13T14:23:03.075Z,20.28
2019-05-13T14:25:34.322Z,20.32
2019-05-13T14:28:06.055Z,20.36
2019-05-13T14:30:37.845Z,20.44
2019-05-13T14:33:09.293Z,20.54
2019-05-13T14:35:41.620Z,20.53
2019-05-13T14:38:13.413Z,20.58
2019-05-13T14:40:45.300Z,20.61
2019-05-13T14:43:16.864Z,20.58
2019-05-13T14:45:48.167Z,20.66
2019-05-13T14:48:22.059Z,20.70
2019-05-13T14:50:52.773Z,20.67
2019-05-13T14:53:24.203Z,20.73
2019-05-13T14:55:55.439Z,20.74
2019-05-13T14:58:26.876Z,20.78
2019-05-13T15:01:11.129Z,20.74
2019-05-13T15:03:32.584Z,20.71
2019-05-13T15:06:04.651Z,20.73
2019-05-13T15:08:36.142Z,20.72
2019-05-13T15:11:07.617Z,20.71
2019-05-13T15:13:42.309Z,20.63
2019-05-13T15:16:12.840Z,20.56
2019-05-13T15:18:44.641Z,20.47
2019-05-13T15:21:16.110Z,20.50
2019-05-13T15:23:52.339Z,20.47
2019-05-13T15:26:25.210Z,20.47
2019-05-13T15:28:56.666Z,20.46
2019-05-13T15:31:31.572Z,20.42
2019-05-13T15:34:06.527Z,20.44
2019-05-13T15:36:41.912Z,20.40
2019-05-13T15:39:13.576Z,20.35
2019-05-13T15:41:45.059Z,20.36
2019-05-13T15:44:16.727Z,20.29
2019-05-13T15:46:48.221Z,20.26
2019-05-13T15:49:22.069Z,20.24
2019-05-13T15:51:53.355Z,20.19
2019-05-13T15:54:25.053Z,20.24
2019-05-13T15:56:58.317Z,20.21
2019-05-13T15:59:29.868Z,20.25
2019-05-13T16:02:03.272Z,20.20
2019-05-13T16:04:48.981Z,20.19
2019-05-13T16:07:12.227Z,20.10
2019-05-13T16:09:43.909Z,20.03
2019-05-13T16:12:15.362Z,19.97
2019-05-13T16:14:46.928Z,19.88
2019-05-13T16:17:18.471Z,19.79
2019-05-13T16:19:53.167Z,19.70
2019-05-13T16:22:23.235Z,19.65
2019-05-13T16:24:54.772Z,19.63
2019-05-13T16:27:31.144Z,19.57
2019-05-13T16:30:02.727Z,19.50
2019-05-13T16:32:34.535Z,19.48
2019-05-13T16:35:07.645Z,19.51
2019-05-13T16:37:41.298Z,19.44
2019-05-13T16:40:13.232Z,19.42
2019-05-13T16:42:44.840Z,19.40
2019-05-13T16:45:16.751Z,19.38
2019-05-13T16:47:57.137Z,19.33
2019-05-13T16:50:22.201Z,19.31
2019-05-13T16:52:53.988Z,19.28
2019-05-13T16:55:25.543Z,19.20
2019-05-13T16:57:57.062Z,19.15
2019-05-13T17:00:28.494Z,19.15
2019-05-13T17:03:02.247Z,19.18
2019-05-13T17:05:33.398Z,19.13
2019-05-13T17:08:04.810Z,19.11
2019-05-13T17:10:36.274Z,19.26
2019-05-13T17:13:07.765Z,19.21
2019-05-13T17:15:41.535Z,18.89
2019-05-13T17:18:15.259Z,18.62
2019-05-13T17:20:45.474Z,18.40
2019-05-13T17:23:17.016Z,18.33
2019-05-13T17:25:48.484Z,18.31
2019-05-13T17:28:21.952Z,18.29
2019-05-13T17:30:53.810Z,18.20
2019-05-13T17:33:25.495Z,18.07
2019-05-13T17:35:57.080Z,17.95
2019-05-13T17:38:28.557Z,17.91
2019-05-13T17:41:02.245Z,17.94
2019-05-13T17:43:33.572Z,17.90
2019-05-13T17:46:05.118Z,17.96
2019-05-13T17:48:36.618Z,18.05
2019-05-13T17:51:08.268Z,18.09
2019-05-13T17:53:41.242Z,18.10
2019-05-13T17:56:12.874Z,18.00
2019-05-13T17:58:44.550Z,17.93
2019-05-13T18:01:16.279Z,17.89
2019-05-13T18:03:48.033Z,17.95
2019-05-13T18:06:19.795Z,17.89
2019-05-13T18:08:51.874Z,17.91
2019-05-13T18:11:23.656Z,17.87
2019-05-13T18:13:55.735Z,17.84
2019-05-13T18:16:27.331Z,17.81
2019-05-13T18:18:59.000Z,17.80
2019-05-13T18:21:32.001Z,17.82
2019-05-13T18:24:03.528Z,17.87
2019-05-13T18:26:35.146Z,17.88
2019-05-13T18:29:07.021Z,17.95
2019-05-13T18:31:38.704Z,17.87
2019-05-13T18:34:12.267Z,17.84
2019-05-13T18:36:43.635Z,17.81
2019-05-13T18:39:15.142Z,17.82
2019-05-13T18:41:46.756Z,17.98
2019-05-13T18:44:19.439Z,18.05
2019-05-13T18:46:52.333Z,18.14
2019-05-13T18:49:24.217Z,18.14
2019-05-13T18:51:55.763Z,18.12
2019-05-13T18:54:27.336Z,18.07
2019-05-13T18:57:01.577Z,18.04
2019-05-13T18:59:33.357Z,17.91
2019-05-13T19:02:04.797Z,17.86
2019-05-13T19:04:36.449Z,17.83
2019-05-13T19:07:07.990Z,17.82
2019-05-13T19:09:41.604Z,17.83
2019-05-13T19:12:12.624Z,17.86
2019-05-13T19:14:43.904Z,17.87
2019-05-13T19:17:15.291Z,17.94
2019-05-13T19:19:46.743Z,17.96
2019-05-13T19:22:18.266Z,17.92
2019-05-13T19:24:51.648Z,17.86
2019-05-13T19:27:22.866Z,17.95
2019-05-13T19:29:54.282Z,17.92
2019-05-13T19:32:25.706Z,17.85
2019-05-13T19:34:57.223Z,17.89
2019-05-13T19:37:28.637Z,17.88
2019-05-13T19:40:01.163Z,17.83
2019-05-13T19:42:32.938Z,17.75
2019-05-13T19:45:04.975Z,17.69
2019-05-13T19:47:36.746Z,17.68
2019-05-13T19:50:08.509Z,17.73
2019-05-13T19:52:41.498Z,17.77
2019-05-13T19:55:13.047Z,17.75
2019-05-13T19:57:44.768Z,17.73
2019-05-13T20:00:16.736Z,17.82
2019-05-13T20:02:48.336Z,17.79
2019-05-13T20:05:21.115Z,17.77
2019-05-13T20:07:52.942Z,17.74
2019-05-13T20:10:24.393Z,17.82
2019-05-13T20:12:55.913Z,17.89
2019-05-13T20:15:27.438Z,17.78
2019-05-13T20:18:01.331Z,17.80
2019-05-13T20:20:32.467Z,17.77
2019-05-13T20:23:04.072Z,17.70
2019-05-13T20:25:35.589Z,17.71
2019-05-13T20:28:07.171Z,17.67
2019-05-13T20:30:38.534Z,17.64
2019-05-13T20:33:11.913Z,17.65
2019-05-13T20:35:43.259Z,17.64
2019-05-13T20:38:14.657Z,17.59
2019-05-13T20:45:03.922Z,17.58
2019-05-13T20:48:28.095Z,17.58
2019-05-13T20:51:24.957Z,17.64
2019-05-13T20:53:56.330Z,17.60
2019-05-13T20:56:27.772Z,17.58
2019-05-13T20:58:59.231Z,17.55
2019-05-13T21:01:30.639Z,17.51
2019-05-13T21:04:01.975Z,17.47
2019-05-13T21:06:34.997Z,17.45
2019-05-13T21:09:06.447Z,17.43
2019-05-13T21:11:38.016Z,17.37
2019-05-13T21:14:09.554Z,17.33
2019-05-13T21:16:41.666Z,17.26
2019-05-13T21:19:13.166Z,17.23
2019-05-13T21:21:44.551Z,17.20
2019-05-13T21:24:16.175Z,17.31
2019-05-13T21:26:47.713Z,17.31
2019-05-13T21:29:19.075Z,17.27
2019-05-13T21:31:52.841Z,17.24
2019-05-13T21:34:23.808Z,17.20
2019-05-13T21:36:55.183Z,17.17
2019-05-13T21:39:26.531Z,17.12
2019-05-13T21:41:57.927Z,17.07
2019-05-13T21:44:29.323Z,16.89
2019-05-13T21:47:02.149Z,16.84
2019-05-13T21:49:33.727Z,16.84
2019-05-13T21:52:05.147Z,16.99
2019-05-13T21:54:37.608Z,17.01
2019-05-13T21:57:11.340Z,17.07
2019-05-13T21:59:45.039Z,17.08
2019-05-13T22:02:15.181Z,17.07
2019-05-13T22:04:46.744Z,17.09
2019-05-13T22:07:18.219Z,16.99
2019-05-13T22:09:51.363Z,17.00
2019-05-13T22:12:22.761Z,16.89
2019-05-13T22:14:54.176Z,16.92
2019-05-13T22:17:25.613Z,16.73
2019-05-13T22:19:58.187Z,16.75
2019-05-13T22:22:29.561Z,16.59
2019-05-13T22:25:01.972Z,16.53
2019-05-13T22:27:33.585Z,16.63
2019-05-13T22:30:07.419Z,16.66
2019-05-13T22:32:38.910Z,16.55
2019-05-13T22:35:11.214Z,16.48
2019-05-13T22:37:42.849Z,16.36
2019-05-13T22:40:14.212Z,16.28
2019-05-13T22:42:45.639Z,16.38
2019-05-13T22:45:17.046Z,16.47
2019-05-13T22:47:48.503Z,16.40
2019-05-13T22:50:21.768Z,16.37
2019-05-13T22:52:53.254Z,16.11
2019-05-13T22:55:24.669Z,16.03
2019-05-13T22:57:56.049Z,15.94
2019-05-13T23:00:27.483Z,16.01
2019-05-13T23:03:01.646Z,16.15
2019-05-13T23:05:33.266Z,16.19
2019-05-13T23:08:04.829Z,16.17
2019-05-13T23:10:36.150Z,16.17
2019-05-13T23:13:07.563Z,16.15
2019-05-13T23:15:39.001Z,16.14
2019-05-13T23:18:11.795Z,16.08
2019-05-13T23:20:43.346Z,16.03
2019-05-13T23:23:14.923Z,15.98
2019-05-13T23:25:46.218Z,15.92
2019-05-13T23:28:17.595Z,15.88
2019-05-13T23:30:51.174Z,15.85
2019-05-13T23:33:23.326Z,15.83
2019-05-13T23:35:54.761Z,15.85
2019-05-13T23:38:27.207Z,15.81
2019-05-13T23:40:58.758Z,15.79
2019-05-13T23:43:31.033Z,15.75
2019-05-13T23:46:02.494Z,15.77
2019-05-13T23:48:33.814Z,15.73
2019-05-13T23:51:05.188Z,15.79
2019-05-13T23:53:36.670Z,15.87
2019-05-13T23:56:08.074Z,15.90
2019-05-13T23:58:41.353Z,16.01
